Time;durP1;ratioP1;P1;durP2;ratioP2;P2;SDS_P1;SDS_P2;PMS_P1;PMS_P2;Temp;Humidity;BMP_temperature;BMP_pressure;BME280_temperature;BME280_humidity;BME280_pressure;Samples;Min_cycle;Max_cycle;Signal;HPM_P1;HPM_P2
2023/02/07 00:02:06;;;;;;;;;;;;;;;17.14;34.87;102263.50;4970956;28;1918;-46
2023/02/07 00:04:32;;;;;;;;;;;;;;;16.21;36.81;102264.03;4960639;28;1145;-43
2023/02/07 00:06:57;;;;;;;;;;;;;;;16.49;36.17;102265.28;4960939;28;1141;-49
2023/02/07 00:09:22;;;;;;;;;;;;;;;16.30;36.68;102259.88;4961511;28;1126;-50
2023/02/07 00:11:48;;;;;;;;;;;;;;;17.18;35.05;102275.69;4961122;28;1148;-49
2023/02/07 00:14:13;;;;;;;;;;;;;;;18.00;33.38;102263.63;4964894;28;949;-47
2023/02/07 00:16:39;;;;;;;;;;;;;;;16.68;35.90;102266.84;4960456;28;1065;-45
2023/02/07 00:19:04;;;;;;;;;;;;;;;16.10;37.01;102262.91;4960818;28;1220;-46
2023/02/07 00:21:30;;;;;;;;;;;;;;;16.25;36.93;102273.47;4960814;28;1081;-49
2023/02/07 00:23:55;;;;;;;;;;;;;;;16.87;35.22;102274.97;4960259;28;1973;-47
2023/02/07 00:26:21;;;;;;;;;;;;;;;15.99;37.27;102280.16;4971598;28;1159;-49
2023/02/07 00:28:47;;;;;;;;;;;;;;;15.75;37.83;102266.31;4967729;28;2749;-44
2023/02/07 00:31:16;;;;;;;;;;;;;;;16.73;35.86;102280.72;4960222;28;1100;-45
2023/02/07 00:33:42;;;;;;;;;;;;;;;16.15;37.19;102281.44;4960672;28;1106;-43
2023/02/07 00:36:09;;;;;;;;;;;;;;;18.04;33.34;102289.59;4942994;28;1302;-50
2023/02/07 00:38:35;;;;;;;;;;;;;;;17.02;35.23;102272.59;4948373;29;1430;-46
2023/02/07 00:41:00;;;;;;;;;;;;;;;16.24;36.84;102278.13;4960226;28;1077;-47
2023/02/07 00:43:26;;;;;;;;;;;;;;;16.58;36.48;102283.09;4959962;28;1898;-44
2023/02/07 00:45:51;;;;;;;;;;;;;;;16.56;36.26;102279.72;4959971;28;1061;-46
2023/02/07 00:48:17;;;;;;;;;;;;;;;16.00;37.18;102288.16;4942504;29;1124;-47
2023/02/07 00:50:42;;;;;;;;;;;;;;;17.35;34.62;102287.63;4972194;28;1082;-48
2023/02/07 00:53:08;;;;;;;;;;;;;;;16.24;36.49;102288.25;4959764;28;1158;-45
2023/02/07 00:55:33;;;;;;;;;;;;;;;16.87;35.74;102284.06;4960019;28;999;-44
2023/02/07 00:57:59;;;;;;;;;;;;;;;16.87;35.33;102280.47;4961478;28;2527;-45
2023/02/07 01:00:24;;;;;;;;;;;;;;;16.07;36.75;102286.19;4942438;28;1110;-44
2023/02/07 01:02:49;;;;;;;;;;;;;;;15.71;37.69;102282.41;4966963;28;1907;-44
2023/02/07 01:05:15;;;;;;;;;;;;;;;16.85;35.61;102293.63;4959973;28;1002;-43
2023/02/07 01:07:40;;;;;;;;;;;;;;;15.83;37.64;102289.91;4960233;28;1030;-47
2023/02/07 01:10:06;;;;;;;;;;;;;;;17.07;35.30;102291.97;4959995;28;1125;-48
2023/02/07 01:12:32;;;;;;;;;;;;;;;16.39;36.18;102291.38;4972301;28;1221;-44
2023/02/07 01:14:58;;;;;;;;;;;;;;;15.86;37.39;102297.66;4960620;28;871;-45
2023/02/07 01:17:23;;;;;;;;;;;;;;;17.02;35.24;102291.84;4958790;28;1015;-51
2023/02/07 01:19:49;;;;;;;;;;;;;;;15.98;37.01;102295.81;4959624;28;1197;-45
2023/02/07 01:22:14;;;;;;;;;;;;;;;15.72;37.55;102292.34;4959395;28;1963;-48
2023/02/07 01:24:39;;;;;;;;;;;;;;;16.48;36.16;102289.16;4959547;28;1054;-46
2023/02/07 01:27:05;;;;;;;;;;;;;;;16.47;35.90;102292.97;4984633;28;1936;-46
2023/02/07 01:29:32;;;;;;;;;;;;;;;16.87;35.53;102285.94;4966236;28;1200;-50
2023/02/07 01:31:57;;;;;;;;;;;;;;;18.19;33.09;102278.03;4959306;28;1181;-47
2023/02/07 01:34:23;;;;;;;;;;;;;;;16.58;36.06;102294.91;4942300;29;1664;-50
2023/02/07 01:36:48;;;;;;;;;;;;;;;15.95;37.22;102301.75;4959306;28;1218;-47
2023/02/07 01:39:14;;;;;;;;;;;;;;;16.85;35.73;102304.59;4961352;28;823;-50
2023/02/07 01:41:39;;;;;;;;;;;;;;;16.17;36.60;102296.59;4971825;28;1018;-50
2023/02/07 01:44:06;;;;;;;;;;;;;;;17.42;34.58;102306.75;4958818;28;1973;-48
2023/02/07 01:46:32;;;;;;;;;;;;;;;17.61;33.97;102299.16;4958962;28;1062;-49
2023/02/07 01:48:58;;;;;;;;;;;;;;;16.38;36.44;102299.88;4958991;28;1034;-46
2023/02/07 01:51:24;;;;;;;;;;;;;;;15.87;37.59;102311.13;4967476;28;939;-50
2023/02/07 01:53:49;;;;;;;;;;;;;;;15.72;37.66;102305.19;4947992;29;1215;-45
2023/02/07 01:56:15;;;;;;;;;;;;;;;15.99;37.35;102313.09;4973551;28;1196;-51
2023/02/07 01:58:40;;;;;;;;;;;;;;;17.00;35.11;102302.25;4943458;29;2709;-44
2023/02/07 02:01:09;;;;;;;;;;;;;;;16.00;37.09;102298.31;4941714;29;1217;-47
2023/02/07 02:03:35;;;;;;;;;;;;;;;17.61;34.20;102296.41;4944127;28;1911;-47
2023/02/07 02:06:00;;;;;;;;;;;;;;;16.60;35.77;102303.72;4926098;29;1320;-43
2023/02/07 02:08:26;;;;;;;;;;;;;;;15.94;37.16;102300.09;4941293;28;1034;-44
2023/02/07 02:11:06;;;;;;;;;;;;;;;15.69;37.48;102308.41;4958586;28;1076;-45
2023/02/07 02:13:44;;;;;;;;;;;;;;;16.59;35.87;102312.19;4941307;28;1544;-45
2023/02/07 02:16:16;;;;;;;;;;;;;;;15.78;37.62;102312.50;4949355;28;1059;-47
2023/02/07 02:18:45;;;;;;;;;;;;;;;17.77;33.66;102306.66;4957962;28;1264;-44
2023/02/07 02:21:12;;;;;;;;;;;;;;;16.28;36.30;102311.41;4958375;28;1134;-43
2023/02/07 02:23:50;;;;;;;;;;;;;;;15.81;37.41;102308.47;4957873;28;1907;-45
2023/02/07 02:26:18;;;;;;;;;;;;;;;16.99;35.42;102317.06;4961955;28;1027;-47
2023/02/07 02:29:03;;;;;;;;;;;;;;;15.90;37.31;102318.91;4966903;28;2567;-46
2023/02/07 02:31:44;;;;;;;;;;;;;;;16.75;35.76;102328.00;4957984;28;1003;-48
2023/02/07 02:34:17;;;;;;;;;;;;;;;16.27;36.39;102322.63;4940929;29;1430;-48
2023/02/07 02:37:03;;;;;;;;;;;;;;;17.82;33.73;102324.34;4941312;29;1204;-48
2023/02/07 02:39:28;;;;;;;;;;;;;;;17.74;33.68;102337.41;4969133;28;1015;-48
2023/02/07 02:41:59;;;;;;;;;;;;;;;16.45;36.13;102338.19;4972853;28;1222;-47
2023/02/07 02:44:27;;;;;;;;;;;;;;;15.95;37.36;102344.81;4925041;28;1987;-48
2023/02/07 02:46:53;;;;;;;;;;;;;;;17.38;34.37;102338.56;4940711;29;1022;-47
2023/02/07 02:49:18;;;;;;;;;;;;;;;16.24;36.81;102338.50;4924863;28;1196;-44
2023/02/07 02:51:44;;;;;;;;;;;;;;;16.95;35.53;102342.50;4945517;29;879;-44
2023/02/07 02:54:28;;;;;;;;;;;;;;;16.69;35.59;102350.94;4958134;28;1157;-49
2023/02/07 02:57:12;;;;;;;;;;;;;;;17.09;35.41;102354.94;4941444;28;2319;-52
2023/02/07 02:59:40;;;;;;;;;;;;;;;17.72;33.63;102347.81;4929204;29;1116;-51
2023/02/07 03:02:15;;;;;;;;;;;;;;;16.58;36.11;102354.50;4958501;28;1185;-45
2023/02/07 03:05:10;;;;;;;;;;;;;;;15.98;37.18;102347.94;4982723;28;1352;-46
2023/02/07 03:07:41;;;;;;;;;;;;;;;16.61;35.83;102354.00;4963992;28;1446;-48
2023/02/07 03:10:10;;;;;;;;;;;;;;;16.81;35.83;102364.66;4958152;28;1097;-46
2023/02/07 03:12:53;;;;;;;;;;;;;;;17.96;33.58;102350.53;4957888;28;1030;-43
2023/02/07 03:15:31;;;;;;;;;;;;;;;16.57;36.00;102361.03;4964519;28;1090;-46
2023/02/07 03:18:09;;;;;;;;;;;;;;;16.22;36.65;102359.84;4940523;29;1153;-49
2023/02/07 03:20:38;;;;;;;;;;;;;;;16.53;36.11;102357.09;4940013;29;1295;-48
2023/02/07 03:23:03;;;;;;;;;;;;;;;17.04;35.39;102352.91;4924451;28;1974;-47
2023/02/07 03:25:29;;;;;;;;;;;;;;;18.04;33.25;102344.63;4912340;29;1330;-45
2023/02/07 03:27:56;;;;;;;;;;;;;;;16.69;35.81;102359.16;4956587;28;2415;-48
2023/02/07 03:30:22;;;;;;;;;;;;;;;16.03;37.10;102355.47;4957608;28;1014;-45
2023/02/07 03:32:49;;;;;;;;;;;;;;;16.84;35.78;102352.38;4957681;28;1038;-44
2023/02/07 03:35:17;;;;;;;;;;;;;;;16.60;35.94;102357.81;4928325;29;1091;-43
2023/02/07 03:37:47;;;;;;;;;;;;;;;16.01;36.91;102361.19;4940192;28;1144;-45
2023/02/07 03:40:12;;;;;;;;;;;;;;;16.56;36.20;102367.59;4947478;29;868;-44
2023/02/07 03:42:39;;;;;;;;;;;;;;;16.52;35.82;102372.75;4940068;28;1959;-47
2023/02/07 03:45:05;;;;;;;;;;;;;;;17.02;35.18;102360.53;4947822;28;1173;-42
2023/02/07 03:47:30;;;;;;;;;;;;;;;18.34;32.56;102356.47;4978083;28;1113;-46
2023/02/07 03:49:56;;;;;;;;;;;;;;;16.70;35.53;102363.56;4957614;28;1193;-47
2023/02/07 03:52:21;;;;;;;;;;;;;;;16.21;36.54;102351.84;4958622;28;847;-45
2023/02/07 03:54:47;;;;;;;;;;;;;;;17.16;34.71;102354.81;4957518;28;1018;-42
2023/02/07 03:57:12;;;;;;;;;;;;;;;16.23;36.62;102346.97;4959264;28;2480;-45
2023/02/07 03:59:38;;;;;;;;;;;;;;;15.93;37.28;102342.28;4957308;28;1449;-48
2023/02/07 04:02:03;;;;;;;;;;;;;;;16.80;35.50;102362.16;4958571;28;1038;-46
2023/02/07 04:04:28;;;;;;;;;;;;;;;15.96;36.95;102351.97;4960777;28;1968;-49
2023/02/07 04:06:54;;;;;;;;;;;;;;;17.92;33.40;102354.84;4960874;28;1121;-45
2023/02/07 04:09:19;;;;;;;;;;;;;;;16.72;35.42;102358.69;4961021;28;1046;-49
2023/02/07 04:11:48;;;;;;;;;;;;;;;15.97;36.93;102362.72;4961002;28;1177;-45
2023/02/07 04:14:13;;;;;;;;;;;;;;;17.05;35.07;102368.31;4960484;28;1027;-42
2023/02/07 04:16:39;;;;;;;;;;;;;;;16.17;36.73;102370.69;4963408;28;899;-45
2023/02/07 04:19:04;;;;;;;;;;;;;;;15.81;37.47;102360.59;4960889;28;1113;-48
2023/02/07 04:21:30;;;;;;;;;;;;;;;16.84;35.63;102360.63;4960497;28;1050;-51
2023/02/07 04:23:55;;;;;;;;;;;;;;;15.96;36.78;102368.44;4960590;28;1914;-46
2023/02/07 04:26:20;;;;;;;;;;;;;;;16.33;36.46;102371.94;4960599;28;1134;-51
2023/02/07 04:28:46;;;;;;;;;;;;;;;17.03;34.71;102364.16;4970063;28;2400;-46
2023/02/07 04:31:11;;;;;;;;;;;;;;;15.92;36.88;102362.56;4960216;28;1038;-48
2023/02/07 04:33:37;;;;;;;;;;;;;;;17.92;33.48;102374.09;4960573;28;1022;-49
2023/02/07 04:36:02;;;;;;;;;;;;;;;16.75;35.55;102371.13;4960788;28;1138;-49
2023/02/07 04:38:28;;;;;;;;;;;;;;;16.02;37.01;102367.50;4960086;28;1130;-46
2023/02/07 04:40:57;;;;;;;;;;;;;;;15.94;37.22;102371.41;4967629;28;894;-46
2023/02/07 04:43:23;;;;;;;;;;;;;;;16.70;35.50;102380.03;4959796;28;1915;-41
2023/02/07 04:45:48;;;;;;;;;;;;;;;15.88;36.98;102375.09;4959909;28;1026;-47
2023/02/07 04:48:14;;;;;;;;;;;;;;;17.34;34.68;102384.94;4959821;28;1002;-54
2023/02/07 04:50:39;;;;;;;;;;;;;;;16.22;36.54;102380.97;4959820;28;1065;-50
2023/02/07 04:53:05;;;;;;;;;;;;;;;16.79;35.44;102382.47;4970738;28;932;-51
2023/02/07 04:55:30;;;;;;;;;;;;;;;17.23;34.17;102378.34;4959816;28;1078;-46
2023/02/07 04:57:56;;;;;;;;;;;;;;;17.39;34.23;102382.31;4970686;28;2193;-49
2023/02/07 05:00:21;;;;;;;;;;;;;;;18.68;31.94;102381.31;4973242;28;999;-52
2023/02/07 05:02:46;;;;;;;;;;;;;;;17.22;34.26;102392.34;4972598;28;1910;-54
2023/02/07 05:05:12;;;;;;;;;;;;;;;16.33;35.96;102391.16;4972603;28;923;-55
2023/02/07 05:07:37;;;;;;;;;;;;;;;15.99;36.57;102385.28;4972549;28;1184;-49
2023/02/07 05:10:03;;;;;;;;;;;;;;;16.74;35.59;102386.75;4972932;28;1142;-49
2023/02/07 05:12:28;;;;;;;;;;;;;;;16.39;36.20;102387.47;4979524;28;998;-47
2023/02/07 05:14:53;;;;;;;;;;;;;;;17.37;34.18;102394.63;4965496;28;1137;-50
2023/02/07 05:17:19;;;;;;;;;;;;;;;17.90;33.16;102387.25;4971680;28;1003;-52
2023/02/07 05:19:44;;;;;;;;;;;;;;;16.63;35.38;102392.22;4972357;28;1170;-44
2023/02/07 05:22:10;;;;;;;;;;;;;;;16.13;36.55;102391.44;4972532;28;1113;-47
2023/02/07 05:24:35;;;;;;;;;;;;;;;16.64;35.69;102386.50;4972435;28;1915;-50
2023/02/07 05:27:01;;;;;;;;;;;;;;;15.87;37.15;102398.09;4964256;28;2042;-51
2023/02/07 05:29:26;;;;;;;;;;;;;;;16.77;35.58;102399.19;4972322;28;916;-46
2023/02/07 05:34:46;;;;;;;;;;;;;;;15.68;37.23;102397.22;4896906;28;1226;-53
2023/02/07 05:37:12;;;;;;;;;;;;;;;16.65;35.43;102399.16;4968319;28;1126;-51
2023/02/07 05:39:37;;;;;;;;;;;;;;;15.74;37.13;102399.06;4976061;28;1099;-47
2023/02/07 05:42:02;;;;;;;;;;;;;;;16.65;35.76;102403.78;4978608;28;1009;-47
2023/02/07 05:44:28;;;;;;;;;;;;;;;16.50;35.58;102401.50;4965852;28;1985;-52
2023/02/07 05:46:53;;;;;;;;;;;;;;;16.48;35.93;102403.63;4970129;28;957;-49
2023/02/07 05:49:19;;;;;;;;;;;;;;;17.86;33.11;102395.16;4978044;28;1151;-50
2023/02/07 05:51:44;;;;;;;;;;;;;;;16.33;36.01;102398.56;4977965;28;1013;-51
2023/02/07 05:54:10;;;;;;;;;;;;;;;15.94;36.64;102401.59;4975391;28;1288;-46
2023/02/07 05:56:35;;;;;;;;;;;;;;;17.37;33.94;102395.44;4950068;29;2183;-48
2023/02/07 05:59:00;;;;;;;;;;;;;;;16.10;36.38;102397.38;4971011;28;1133;-45
2023/02/07 06:01:26;;;;;;;;;;;;;;;17.71;33.51;102398.44;4969655;28;1177;-46
2023/02/07 06:03:51;;;;;;;;;;;;;;;17.20;34.40;102395.34;4973651;28;1914;-46
2023/02/07 06:06:17;;;;;;;;;;;;;;;16.30;35.93;102386.16;4977676;28;1112;-44
2023/02/07 06:08:42;;;;;;;;;;;;;;;17.25;34.57;102391.84;4964704;28;1161;-45
2023/02/07 06:11:08;;;;;;;;;;;;;;;16.56;35.50;102386.81;4978242;28;1014;-48
2023/02/07 06:13:33;;;;;;;;;;;;;;;17.29;34.31;102379.31;4964599;28;1176;-47
2023/02/07 06:15:59;;;;;;;;;;;;;;;17.84;33.04;102382.72;4977467;28;1002;-48
2023/02/07 06:18:24;;;;;;;;;;;;;;;17.34;34.01;102382.19;4964758;28;1162;-49
2023/02/07 06:20:50;;;;;;;;;;;;;;;16.82;35.08;102374.59;4976370;28;1469;-49
2023/02/07 06:23:15;;;;;;;;;;;;;;;16.31;36.00;102379.56;4971207;28;1985;-48
2023/02/07 06:25:41;;;;;;;;;;;;;;;16.11;36.36;102387.25;4965563;28;1093;-54
2023/02/07 06:28:06;;;;;;;;;;;;;;;15.77;36.79;102382.13;4971325;28;1166;-53
2023/02/07 06:30:32;;;;;;;;;;;;;;;15.57;37.03;102383.19;4947424;28;1193;-53
2023/02/07 06:32:57;;;;;;;;;;;;;;;15.37;37.35;102386.13;4970895;28;1069;-50
2023/02/07 06:35:23;;;;;;;;;;;;;;;15.19;37.96;102381.47;4968798;28;1011;-50
2023/02/07 06:37:49;;;;;;;;;;;;;;;15.54;37.22;102382.81;4963675;28;1017;-50
2023/02/07 06:40:14;;;;;;;;;;;;;;;17.03;34.14;102378.72;4963335;28;1109;-53
2023/02/07 06:42:40;;;;;;;;;;;;;;;16.21;35.48;102371.88;4976240;28;1894;-50
2023/02/07 06:45:05;;;;;;;;;;;;;;;15.62;36.75;102384.41;4975498;28;990;-49
2023/02/07 06:47:31;;;;;;;;;;;;;;;15.31;37.26;102389.78;4964331;28;1007;-54
2023/02/07 06:49:56;;;;;;;;;;;;;;;16.72;34.67;102394.41;4976207;28;1117;-49
2023/02/07 06:52:22;;;;;;;;;;;;;;;16.70;34.83;102387.47;4958865;28;1070;-50
2023/02/07 06:54:47;;;;;;;;;;;;;;;15.87;36.32;102387.13;4966041;28;1114;-47
2023/02/07 06:57:13;;;;;;;;;;;;;;;15.49;36.86;102399.13;4977236;28;1141;-51
2023/02/07 06:59:38;;;;;;;;;;;;;;;15.21;37.53;102400.44;4977379;28;1037;-51
2023/02/07 07:02:04;;;;;;;;;;;;;;;16.70;34.50;102395.69;4964711;28;1228;-48
2023/02/07 07:04:29;;;;;;;;;;;;;;;17.48;33.12;102395.69;4976684;28;1918;-50
2023/02/07 07:06:55;;;;;;;;;;;;;;;16.28;35.44;102404.75;4964466;28;1217;-48
2023/02/07 07:09:21;;;;;;;;;;;;;;;15.70;36.49;102406.88;4977430;28;1049;-46
2023/02/07 07:11:46;;;;;;;;;;;;;;;15.38;36.98;102396.03;4963885;28;1033;-50
2023/02/07 07:14:12;;;;;;;;;;;;;;;16.22;35.37;102397.44;4977316;28;1085;-50
2023/02/07 07:16:39;;;;;;;;;;;;;;;17.38;33.29;102397.13;4976619;28;1017;-47
2023/02/07 07:19:05;;;;;;;;;;;;;;;16.58;34.65;102406.66;4971583;28;1607;-55
2023/02/07 07:21:30;;;;;;;;;;;;;;;15.85;35.87;102409.28;4969149;28;1141;-50
2023/02/07 07:23:55;;;;;;;;;;;;;;;15.52;36.57;102417.84;4963997;28;1920;-48
2023/02/07 07:26:21;;;;;;;;;;;;;;;15.40;37.06;102424.06;4965782;28;1188;-50
2023/02/07 07:28:48;;;;;;;;;;;;;;;17.01;34.06;102418.50;4975364;28;1136;-50
2023/02/07 07:31:13;;;;;;;;;;;;;;;16.48;34.65;102414.59;4977512;28;1097;-53
2023/02/07 07:33:39;;;;;;;;;;;;;;;15.77;35.93;102417.78;4976986;28;1053;-51
2023/02/07 07:36:04;;;;;;;;;;;;;;;15.51;36.87;102417.00;4965931;28;1117;-49
2023/02/07 07:38:30;;;;;;;;;;;;;;;17.07;33.72;102431.31;4949049;28;1126;-49
2023/02/07 07:40:56;;;;;;;;;;;;;;;16.89;34.00;102435.78;4980396;28;1112;-51
2023/02/07 07:43:21;;;;;;;;;;;;;;;15.98;35.62;102438.47;4977960;28;1961;-49
2023/02/07 07:45:54;;;;;;;;;;;;;;;15.59;36.32;102440.56;4987856;28;1184;-50
2023/02/07 07:48:20;;;;;;;;;;;;;;;15.30;37.20;102440.16;4980718;28;1073;-51
2023/02/07 07:50:46;;;;;;;;;;;;;;;16.89;34.09;102451.47;4980838;28;1030;-51
2023/02/07 07:53:11;;;;;;;;;;;;;;;17.64;32.61;102444.47;4972426;28;1113;-48
2023/02/07 07:55:37;;;;;;;;;;;;;;;16.40;34.79;102446.81;4962709;28;1130;-51
2023/02/07 07:58:02;;;;;;;;;;;;;;;15.86;36.09;102440.31;4980744;28;1093;-51
2023/02/07 08:00:28;;;;;;;;;;;;;;;15.51;36.57;102449.06;4979449;28;1021;-50
2023/02/07 08:02:53;;;;;;;;;;;;;;;16.57;34.89;102440.69;4968842;28;1965;-52
2023/02/07 08:05:19;;;;;;;;;;;;;;;17.49;33.11;102453.22;4979679;28;1135;-50
2023/02/07 08:07:44;;;;;;;;;;;;;;;16.36;35.04;102453.84;4980335;28;1054;-55
2023/02/07 08:10:10;;;;;;;;;;;;;;;15.79;36.30;102458.72;4968008;28;1133;-50
2023/02/07 08:12:35;;;;;;;;;;;;;;;15.48;36.65;102450.34;4972891;28;1173;-53
2023/02/07 08:15:01;;;;;;;;;;;;;;;15.80;36.33;102452.19;4974063;28;1057;-51
2023/02/07 08:17:26;;;;;;;;;;;;;;;17.23;33.49;102454.50;4960841;28;859;-46
2023/02/07 08:19:52;;;;;;;;;;;;;;;16.51;34.81;102453.44;4973533;28;1105;-45
2023/02/07 08:22:17;;;;;;;;;;;;;;;15.83;35.96;102459.97;4968321;28;1085;-46
2023/02/07 08:24:43;;;;;;;;;;;;;;;15.47;36.71;102467.03;4980005;28;1977;-43
2023/02/07 08:27:08;;;;;;;;;;;;;;;15.51;36.93;102460.03;4973017;28;1145;-46
2023/02/07 08:29:34;;;;;;;;;;;;;;;17.10;33.91;102466.56;4973940;28;1192;-47
2023/02/07 08:31:59;;;;;;;;;;;;;;;16.71;34.33;102458.63;4973243;28;1069;-47
2023/02/07 08:34:27;;;;;;;;;;;;;;;15.89;35.93;102459.91;4965221;28;1132;-48
2023/02/07 08:36:53;;;;;;;;;;;;;;;15.50;36.78;102469.31;4973466;28;1066;-45
2023/02/07 08:39:18;;;;;;;;;;;;;;;15.86;36.22;102467.72;4970714;28;1128;-50
2023/02/07 08:41:44;;;;;;;;;;;;;;;17.24;33.71;102472.69;4977698;28;1049;-48
2023/02/07 08:44:09;;;;;;;;;;;;;;;16.50;34.87;102475.66;4960702;28;1911;-50
2023/02/07 08:46:35;;;;;;;;;;;;;;;15.82;36.11;102478.34;4975055;28;1054;-49
2023/02/07 08:49:00;;;;;;;;;;;;;;;15.51;36.74;102474.56;4978886;28;1124;-48
2023/02/07 08:51:25;;;;;;;;;;;;;;;16.94;34.37;102470.81;4966514;28;1053;-47
2023/02/07 08:53:52;;;;;;;;;;;;;;;16.94;34.27;102462.56;4966932;28;1236;-52
2023/02/07 08:56:17;;;;;;;;;;;;;;;16.02;35.72;102464.38;4953754;28;1067;-45
2023/02/07 08:58:44;;;;;;;;;;;;;;;15.60;36.63;102455.94;4966415;28;1205;-51
2023/02/07 09:01:10;;;;;;;;;;;;;;;15.35;37.12;102462.28;4966747;28;1145;-51
2023/02/07 09:03:39;;;;;;;;;;;;;;;16.55;34.88;102467.53;4966882;28;1907;-46
2023/02/07 09:06:04;;;;;;;;;;;;;;;17.41;33.18;102459.06;4965948;28;1094;-46
2023/02/07 09:08:30;;;;;;;;;;;;;;;16.20;35.15;102460.81;4979658;28;1089;-45
2023/02/07 09:10:55;;;;;;;;;;;;;;;15.73;36.22;102444.81;4978746;28;1045;-48
2023/02/07 09:13:21;;;;;;;;;;;;;;;15.38;36.98;102442.63;4979206;28;1088;-48
2023/02/07 09:15:52;;;;;;;;;;;;;;;16.53;35.00;102442.22;4992487;28;1044;-45
2023/02/07 09:18:17;;;;;;;;;;;;;;;17.54;33.10;102428.56;4968316;28;902;-46
2023/02/07 09:20:43;;;;;;;;;;;;;;;16.40;34.91;102429.50;4976755;28;1055;-51
2023/02/07 09:23:18;;;;;;;;;;;;;;;15.79;36.20;102434.88;4968129;28;1967;-51
2023/02/07 09:25:46;;;;;;;;;;;;;;;15.46;36.54;102424.22;4966234;28;1188;-47
2023/02/07 09:28:12;;;;;;;;;;;;;;;15.71;36.55;102425.03;4993723;28;1045;-47
2023/02/07 09:30:43;;;;;;;;;;;;;;;17.19;33.37;102399.16;4966479;28;1165;-49
2023/02/07 09:33:09;;;;;;;;;;;;;;;16.73;34.35;102401.56;4968009;28;1208;-53
2023/02/07 09:35:35;;;;;;;;;;;;;;;15.89;36.05;102398.69;4977124;28;1026;-50
2023/02/07 09:38:01;;;;;;;;;;;;;;;15.57;36.62;102396.91;4978605;28;1128;-46
2023/02/07 09:40:26;;;;;;;;;;;;;;;15.57;36.49;102385.09;4965896;28;1149;-46
2023/02/07 09:43:08;;;;;;;;;;;;;;;17.11;33.57;102380.28;4978424;28;1906;-50
2023/02/07 09:45:33;;;;;;;;;;;;;;;17.23;33.11;102381.09;4959336;28;1121;-50
2023/02/07 09:48:00;;;;;;;;;;;;;;;16.18;35.21;102380.59;4978885;28;1026;-50
2023/02/07 09:50:27;;;;;;;;;;;;;;;15.73;36.12;102369.94;4990234;28;1069;-53
2023/02/07 09:52:54;;;;;;;;;;;;;;;15.48;36.46;102370.00;4963958;28;1081;-50
2023/02/07 09:55:21;;;;;;;;;;;;;;;16.75;34.12;102376.63;4960799;28;1079;-48
2023/02/07 09:57:48;;;;;;;;;;;;;;;17.46;32.72;102373.94;4971736;28;1038;-49
2023/02/07 10:00:29;;;;;;;;;;;;;;;16.25;34.79;102372.28;4971761;28;1118;-55
2023/02/07 10:03:04;;;;;;;;;;;;;;;15.71;36.05;102372.91;4933086;29;1985;-47
2023/02/07 10:05:39;;;;;;;;;;;;;;;15.46;36.43;102369.38;4971108;28;1146;-47
2023/02/07 10:08:06;;;;;;;;;;;;;;;15.76;36.08;102357.69;4982964;28;1117;-53
2023/02/07 10:10:38;;;;;;;;;;;;;;;17.21;33.12;102352.19;4948516;28;1142;-49
2023/02/07 10:13:15;;;;;;;;;;;;;;;17.01;33.35;102364.38;4968545;28;1200;-50
2023/02/07 10:15:41;;;;;;;;;;;;;;;16.03;35.37;102342.59;4983459;28;1236;-47
2023/02/07 10:18:09;;;;;;;;;;;;;;;15.60;35.91;102349.00;4971654;28;1130;-48
2023/02/07 10:20:39;;;;;;;;;;;;;;;15.35;36.67;102349.91;4967125;28;1325;-46
2023/02/07 10:23:23;;;;;;;;;;;;;;;16.67;34.25;102341.25;4981043;28;1977;-50
2023/02/07 10:26:01;;;;;;;;;;;;;;;17.16;33.31;102341.09;4945118;28;1162;-51
2023/02/07 10:28:31;;;;;;;;;;;;;;;16.02;35.14;102338.16;4961311;28;1048;-47
2023/02/07 10:30:57;;;;;;;;;;;;;;;15.60;36.15;102331.69;4960267;28;990;-47
2023/02/07 10:33:23;;;;;;;;;;;;;;;15.27;36.45;102328.25;4984738;28;1113;-49
2023/02/07 10:35:49;;;;;;;;;;;;;;;16.40;34.66;102325.19;4957854;29;1257;-45
2023/02/07 10:38:17;;;;;;;;;;;;;;;17.30;33.14;102330.69;4949276;29;1161;-49
2023/02/07 10:40:51;;;;;;;;;;;;;;;16.15;34.76;102312.44;4958488;29;1230;-47
2023/02/07 10:43:28;;;;;;;;;;;;;;;15.61;35.90;102314.19;4939591;29;1912;-45
2023/02/07 10:46:13;;;;;;;;;;;;;;;15.36;36.52;102302.25;4956034;29;1143;-48
2023/02/07 10:48:39;;;;;;;;;;;;;;;17.02;33.34;102300.09;4958228;29;1194;-46
2023/02/07 10:51:30;;;;;;;;;;;;;;;17.19;33.00;102277.38;4958449;29;1273;-45
2023/02/07 10:54:06;;;;;;;;;;;;;;;16.00;35.32;102288.16;4955063;28;1646;-43
2023/02/07 10:56:32;;;;;;;;;;;;;;;15.62;35.96;102267.34;4958145;28;1245;-42
2023/02/07 10:58:58;;;;;;;;;;;;;;;15.38;36.31;102291.88;4941500;28;1372;-49
2023/02/07 11:01:24;;;;;;;;;;;;;;;16.93;33.43;102296.88;4957809;28;1099;-49
2023/02/07 11:03:50;;;;;;;;;;;;;;;17.61;32.13;102274.41;4939822;29;1989;-45
2023/02/07 11:06:22;;;;;;;;;;;;;;;16.32;34.46;102279.69;4955907;28;1323;-45
2023/02/07 11:08:48;;;;;;;;;;;;;;;15.84;35.29;102286.09;4956601;28;1241;-44
2023/02/07 11:11:27;;;;;;;;;;;;;;;15.53;35.86;102283.28;4940641;29;1332;-43
2023/02/07 11:13:55;;;;;;;;;;;;;;;16.70;33.88;102285.84;4959872;28;1110;-44
2023/02/07 11:16:21;;;;;;;;;;;;;;;17.56;32.13;102274.31;4969911;28;1126;-45
2023/02/07 11:19:02;;;;;;;;;;;;;;;16.36;34.28;102278.13;4983647;28;1573;-50
2023/02/07 11:21:34;;;;;;;;;;;;;;;15.80;35.40;102277.47;4965818;28;1205;-43
2023/02/07 11:24:03;;;;;;;;;;;;;;;15.48;36.06;102276.81;4946264;29;1987;-44
2023/02/07 11:26:29;;;;;;;;;;;;;;;16.98;33.43;102271.41;4963297;29;1150;-47
2023/02/07 11:29:04;;;;;;;;;;;;;;;17.21;32.90;102253.25;4963784;29;1197;-46
2023/02/07 11:31:30;;;;;;;;;;;;;;;16.14;34.45;102255.88;4975204;28;1240;-48
2023/02/07 11:34:06;;;;;;;;;;;;;;;15.70;35.30;102239.59;4963071;28;1198;-42
2023/02/07 11:36:32;;;;;;;;;;;;;;;15.44;35.73;102250.91;4962197;29;1180;-41
2023/02/07 11:38:58;;;;;;;;;;;;;;;16.61;33.86;102246.91;4962685;29;1265;-42
2023/02/07 11:41:24;;;;;;;;;;;;;;;17.55;32.29;102242.38;4962583;28;1351;-46
2023/02/07 11:43:50;;;;;;;;;;;;;;;16.30;33.95;102235.16;4962585;28;1972;-46
2023/02/07 11:46:16;;;;;;;;;;;;;;;15.70;35.03;102227.81;4961822;29;1335;-49
2023/02/07 11:48:41;;;;;;;;;;;;;;;15.59;35.45;102225.84;4962648;29;1291;-46
2023/02/07 11:51:07;;;;;;;;;;;;;;;17.02;32.75;102227.81;4945788;29;1539;-48
2023/02/07 11:53:40;;;;;;;;;;;;;;;16.81;33.30;102231.97;4964114;28;1356;-44
2023/02/07 11:56:06;;;;;;;;;;;;;;;15.96;34.67;102215.63;4963107;28;1331;-47
2023/02/07 11:58:40;;;;;;;;;;;;;;;15.57;35.35;102224.16;4945546;29;1304;-44
2023/02/07 12:01:06;;;;;;;;;;;;;;;15.62;35.25;102231.69;4963280;28;1308;-43
2023/02/07 12:03:41;;;;;;;;;;;;;;;17.15;32.79;102218.47;4958085;28;2183;-44
2023/02/07 12:06:06;;;;;;;;;;;;;;;16.70;33.36;102230.91;4941953;29;1332;-43
2023/02/07 12:08:32;;;;;;;;;;;;;;;15.96;34.62;102223.03;4945063;29;1122;-46
2023/02/07 12:10:59;;;;;;;;;;;;;;;15.60;35.28;102222.88;4945004;29;1343;-43
2023/02/07 12:13:26;;;;;;;;;;;;;;;15.43;35.94;102235.53;4944789;29;1288;-42
2023/02/07 12:15:53;;;;;;;;;;;;;;;16.95;33.09;102233.44;4961902;29;1288;-47
2023/02/07 12:18:21;;;;;;;;;;;;;;;17.09;32.64;102223.84;4962452;28;1241;-45
2023/02/07 12:20:53;;;;;;;;;;;;;;;16.04;34.47;102229.00;4962497;28;1236;-43
2023/02/07 12:23:18;;;;;;;;;;;;;;;15.66;35.27;102223.84;4961403;28;1973;-47
2023/02/07 12:25:47;;;;;;;;;;;;;;;15.37;35.54;102229.88;4959567;29;1316;-44
2023/02/07 12:28:15;;;;;;;;;;;;;;;16.80;33.02;102231.13;4959543;28;1256;-46
2023/02/07 12:30:42;;;;;;;;;;;;;;;17.02;32.61;102201.16;4959054;28;1295;-45
2023/02/07 12:33:26;;;;;;;;;;;;;;;16.01;34.22;102207.53;4973503;28;1383;-45
2023/02/07 12:35:51;;;;;;;;;;;;;;;15.60;34.85;102205.56;4958640;29;1256;-47
2023/02/07 12:38:23;;;;;;;;;;;;;;;15.81;34.69;102210.59;4959143;28;1288;-47
2023/02/07 12:41:01;;;;;;;;;;;;;;;17.27;32.15;102213.78;4958619;29;1303;-44
2023/02/07 12:43:27;;;;;;;;;;;;;;;16.50;33.50;102212.88;4971999;28;1911;-45
2023/02/07 12:45:59;;;;;;;;;;;;;;;15.85;34.53;102224.66;4973164;28;1119;-42
2023/02/07 12:48:38;;;;;;;;;;;;;;;15.54;35.10;102221.91;4957912;29;1199;-45
2023/02/07 12:51:25;;;;;;;;;;;;;;;16.77;33.01;102207.75;4941112;29;1183;-39
2023/02/07 12:53:53;;;;;;;;;;;;;;;17.24;32.34;102211.50;4957171;28;1312;-39